KSNY/SNY METAR and TAF weather

Enter ICAO airport designator
Station Type Date Time Source
KSNY METAR 2018/12/18 18:53 UTC NOAA

KSNY 181853Z AUTO 32020KT 10SM CLR 13/M03 A2992 RMK AO2 PK WND 32027/1827 SLP122 T01281033


Station Type Date Time Source
KSNY Decoded METAR 2018/12/18 18:53 UTC NOAA

SIDNEY MUNICIPAL AIRPORT, NE, United States (KSNY) 41-06N 102-59W 1307M
Dec 18, 2018 - 01:53 PM EST / 2018.12.18 1853 UTC
Wind: from the NW (320 degrees) at 23 MPH (20 KT):0
Visibility: 10 mile(s):0
Sky conditions: clear
Temperature: 55.0 F (12.8 C)
Dew Point: 26.1 F (-3.3 C)
Relative Humidity: 32%
Pressure (altimeter): 29.92 in. Hg (1013 hPa)
ob: KSNY 181853Z AUTO 32020KT 10SM CLR 13/M03 A2992 RMK AO2 PK WND 32027/1827 SLP122 T01281033
cycle: 19

Station Type Date Time Source
KSNY TAF 2018/12/18 18:27 UTC NOAA

TAF KSNY 181723Z 1818/1918 31018G25KT P6SM SCT150
FM190300 30030G40KT P6SM FEW150 WS020/30045KT
FM191600 31028G41KT P6SM BKN110


Example: see airport list